Time;durP1;ratioP1;P1;durP2;ratioP2;P2;SDS_P1;SDS_P2;PMS_P1;PMS_P2;Temp;Humidity;BMP_temperature;BMP_pressure;BME280_temperature;BME280_humidity;BME280_pressure;Samples;Min_cycle;Max_cycle;Signal;HPM_P1;HPM_P2
2024/01/02 00:00:56;;;;;;;8.63;1.30;;;;;;;6.20;100.00;100350.97;5065613;28;20036;-67
2024/01/02 00:03:23;;;;;;;6.33;1.00;;;;;;;6.23;100.00;100344.94;5066525;28;20268;-68
2024/01/02 00:05:49;;;;;;;6.03;1.13;;;;;;;6.23;100.00;100345.84;5065678;28;20035;-67
2024/01/02 00:08:14;;;;;;;5.40;1.10;;;;;;;6.23;100.00;100350.19;5066028;28;20032;-67
2024/01/02 00:10:39;;;;;;;8.27;1.23;;;;;;;6.24;100.00;100341.53;5065947;28;20132;-67
2024/01/02 00:13:05;;;;;;;5.87;1.07;;;;;;;6.24;100.00;100341.53;5065975;28;20037;-66
2024/01/02 00:15:30;;;;;;;8.25;1.23;;;;;;;6.22;100.00;100338.81;5065499;28;20147;-67
2024/01/02 00:17:56;;;;;;;6.70;1.27;;;;;;;6.24;100.00;100338.91;5066014;28;20128;-67
2024/01/02 00:20:21;;;;;;;5.17;1.20;;;;;;;6.22;100.00;100333.56;5058302;28;20033;-66
2024/01/02 00:22:46;;;;;;;7.27;1.30;;;;;;;6.23;100.00;100330.13;5052881;28;20103;-67
2024/01/02 00:25:12;;;;;;;6.63;1.13;;;;;;;6.24;100.00;100331.03;5052336;28;20122;-67
2024/01/02 00:27:37;;;;;;;6.85;1.30;;;;;;;6.25;100.00;100335.47;5052404;28;20037;-67
2024/01/02 00:30:03;;;;;;;7.17;1.10;;;;;;;6.24;100.00;100331.94;5052364;28;20092;-67
2024/01/02 00:32:28;;;;;;;4.37;1.30;;;;;;;6.23;100.00;100329.22;5052444;28;20051;-66
2024/01/02 00:34:54;;;;;;;6.73;1.33;;;;;;;6.23;100.00;100326.59;5052250;28;20385;-66
2024/01/02 00:37:19;;;;;;;7.90;1.80;;;;;;;6.22;100.00;100320.44;5052363;28;20315;-67
2024/01/02 00:39:44;;;;;;;9.03;2.63;;;;;;;6.23;100.00;100326.59;5052325;28;20108;-66
2024/01/02 00:42:10;;;;;;;15.63;2.90;;;;;;;6.21;100.00;100320.41;5052235;28;20452;-65
2024/01/02 00:44:35;;;;;;;12.57;3.70;;;;;;;6.20;100.00;100318.59;5050975;28;20040;-66
2024/01/02 00:47:00;;;;;;;12.47;3.57;;;;;;;6.18;100.00;100317.59;5052570;28;20059;-66
2024/01/02 00:49:26;;;;;;;12.40;3.53;;;;;;;6.12;100.00;100307.69;5051702;28;20295;-68
2024/01/02 00:51:51;;;;;;;8.97;3.03;;;;;;;6.06;100.00;100310.03;5051978;28;20041;-66
2024/01/02 00:54:16;;;;;;;8.67;2.07;;;;;;;6.01;100.00;100309.78;5051847;28;20115;-66
2024/01/02 00:56:42;;;;;;;11.13;1.60;;;;;;;5.96;100.00;100306.03;5051843;28;20108;-67
2024/01/02 00:59:07;;;;;;;5.73;1.20;;;;;;;5.92;100.00;100311.03;5051421;28;20119;-68
2024/01/02 01:01:33;;;;;;;7.40;1.50;;;;;;;5.90;100.00;100304.78;5052585;28;20354;-67
2024/01/02 01:03:59;;;;;;;7.18;1.15;;;;;;;5.85;100.00;100307.16;5051833;28;20037;-68
2024/01/02 01:06:24;;;;;;;6.30;1.70;;;;;;;5.81;100.00;100304.28;5051516;28;20546;-66
2024/01/02 01:08:49;;;;;;;10.60;2.33;;;;;;;5.78;100.00;100296.25;5051334;28;20041;-66
2024/01/02 01:11:18;;;;;;;7.10;1.33;;;;;;;5.73;100.00;100295.09;5050691;28;20055;-66
2024/01/02 01:13:44;;;;;;;10.70;1.73;;;;;;;5.69;100.00;100295.75;5051721;28;20041;-66
2024/01/02 01:16:09;;;;;;;8.60;1.33;;;;;;;5.65;100.00;100290.38;5051493;28;20127;-67
2024/01/02 01:18:37;;;;;;;7.10;1.40;;;;;;;5.60;100.00;100288.31;5051688;28;20195;-68
2024/01/02 01:21:03;;;;;;;8.75;1.25;;;;;;;5.55;100.00;100282.84;5051506;28;20045;-66
2024/01/02 01:23:29;;;;;;;4.73;1.00;;;;;;;5.47;100.00;100284.16;5051937;28;20044;-66
2024/01/02 01:25:54;;;;;;;7.07;1.20;;;;;;;5.42;100.00;100285.63;5050243;28;20288;-66
2024/01/02 01:28:19;;;;;;;5.50;0.80;;;;;;;5.35;100.00;100287.81;5051476;28;20127;-66
2024/01/02 01:30:45;;;;;;;11.27;1.40;;;;;;;5.30;100.00;100284.97;5051239;28;20079;-66
2024/01/02 01:33:10;;;;;;;7.07;1.93;;;;;;;5.30;100.00;100284.06;5049381;28;20115;-66
2024/01/02 01:35:35;;;;;;;9.03;1.40;;;;;;;5.26;100.00;100285.63;5051068;28;20111;-66
2024/01/02 01:38:01;;;;;;;5.23;1.20;;;;;;;5.26;100.00;100289.94;5051226;28;20279;-66
2024/01/02 01:40:27;;;;;;;5.90;1.10;;;;;;;5.23;100.00;100283.72;5049771;28;20025;-66
2024/01/02 01:42:52;;;;;;;8.10;1.45;;;;;;;5.22;100.00;100291.50;5051220;28;20037;-66
2024/01/02 01:45:18;;;;;;;9.60;1.43;;;;;;;5.22;100.00;100291.50;5049736;28;20174;-66
2024/01/02 01:47:44;;;;;;;10.10;1.73;;;;;;;5.21;100.00;100284.47;5050818;28;20033;-66
2024/01/02 01:50:10;;;;;;;8.70;1.40;;;;;;;5.17;100.00;100283.41;5050642;28;20041;-65
2024/01/02 01:52:36;;;;;;;10.40;1.00;;;;;;;5.17;100.00;100288.66;5051293;28;20040;-65
2024/01/02 01:55:04;;;;;;;10.02;1.38;;;;;;;5.16;100.00;100286.84;5050612;28;20029;-65
2024/01/02 01:57:29;;;;;;;8.73;1.73;;;;;;;5.13;100.00;100285.78;5049550;28;20167;-65
2024/01/02 01:59:54;;;;;;;8.20;1.13;;;;;;;5.09;100.00;100283.78;5049596;28;20104;-65
2024/01/02 02:02:21;;;;;;;8.17;1.50;;;;;;;5.03;100.00;100278.22;5050165;28;20755;-66
2024/01/02 02:04:49;;;;;;;11.23;1.50;;;;;;;4.96;100.00;100286.56;5049405;28;20057;-66
2024/01/02 02:07:15;;;;;;;9.83;1.30;;;;;;;4.91;100.00;100283.69;5049409;28;20033;-65
2024/01/02 02:09:40;;;;;;;10.23;1.77;;;;;;;4.85;100.00;100287.66;5050306;28;20039;-65
2024/01/02 02:12:06;;;;;;;9.20;1.20;;;;;;;4.78;100.00;100286.44;5049237;28;20120;-65
2024/01/02 02:14:32;;;;;;;10.77;1.88;;;;;;;4.70;100.00;100285.97;5049283;28;20025;-65
2024/01/02 02:16:58;;;;;;;11.80;1.43;;;;;;;4.66;100.00;100280.50;5049362;28;20435;-65
2024/01/02 02:19:23;;;;;;;7.20;1.55;;;;;;;4.60;100.00;100290.59;5049012;28;20548;-65
2024/01/02 02:21:51;;;;;;;4.97;1.13;;;;;;;4.58;100.00;100294.88;5032093;28;20119;-65
2024/01/02 02:24:17;;;;;;;10.60;1.17;;;;;;;4.52;100.00;100291.88;5048780;28;20036;-65
2024/01/02 02:26:43;;;;;;;8.95;1.58;;;;;;;4.48;100.00;100289.91;5050104;28;20040;-66
2024/01/02 02:29:08;;;;;;;10.67;1.13;;;;;;;4.45;100.00;100290.63;5049940;28;20048;-66
2024/01/02 02:31:34;;;;;;;8.93;1.05;;;;;;;4.39;100.00;100274.56;5050406;28;20709;-65
2024/01/02 02:34:00;;;;;;;11.57;1.57;;;;;;;4.38;100.00;100267.56;5049243;28;20497;-65
2024/01/02 02:36:25;;;;;;;9.98;1.30;;;;;;;4.33;100.00;100266.41;5049694;28;20029;-65
2024/01/02 02:38:50;;;;;;;11.47;1.27;;;;;;;4.32;100.00;100261.97;5048667;28;20075;-65
2024/01/02 02:41:16;;;;;;;13.00;1.40;;;;;;;4.28;100.00;100258.31;5050019;28;20036;-65
2024/01/02 02:43:41;;;;;;;12.97;1.37;;;;;;;4.26;100.00;100257.31;5049968;28;20512;-65
2024/01/02 02:46:07;;;;;;;12.00;2.03;;;;;;;4.23;100.00;100248.38;5049675;28;20044;-65
2024/01/02 02:48:32;;;;;;;13.35;1.48;;;;;;;4.21;100.00;100252.63;5050505;28;20136;-65
2024/01/02 02:50:57;;;;;;;8.90;1.43;;;;;;;4.18;100.00;100245.50;5051835;28;20037;-65
2024/01/02 02:53:23;;;;;;;11.30;1.83;;;;;;;4.11;100.00;100242.44;5050595;28;20108;-65
2024/01/02 02:58:09;;;;;;;7.82;1.25;;;;;;;4.08;100.00;100240.56;5107808;27;20355;-64
2024/01/02 03:02:47;;;;;;;8.30;1.75;;;;;;;4.02;100.00;100240.19;5004386;28;20376;-66
2024/01/02 03:05:14;;;;;;;13.43;2.07;;;;;;;4.02;100.00;100236.69;5003927;28;20030;-66
2024/01/02 03:07:41;;;;;;;11.60;1.70;;;;;;;3.99;100.00;100231.28;5004224;28;20046;-66
2024/01/02 03:10:06;;;;;;;10.77;1.50;;;;;;;3.95;100.00;100224.97;4993850;28;20042;-67
2024/01/02 03:12:32;;;;;;;9.38;1.75;;;;;;;3.91;100.00;100217.75;4984578;28;20039;-66
2024/01/02 03:14:57;;;;;;;12.97;1.63;;;;;;;3.86;100.00;100219.19;4984376;28;20047;-66
2024/01/02 03:17:23;;;;;;;9.93;1.80;;;;;;;3.85;100.00;100215.69;4984502;28;20041;-67
2024/01/02 03:19:48;;;;;;;11.33;2.20;;;;;;;3.84;100.00;100213.00;4984240;28;20042;-66
2024/01/02 03:22:13;;;;;;;9.03;1.70;;;;;;;3.82;100.00;100206.78;4984279;28;20042;-67
2024/01/02 03:24:39;;;;;;;9.27;1.30;;;;;;;3.83;100.00;100211.19;4984274;28;20133;-66
2024/01/02 03:27:04;;;;;;;9.87;1.97;;;;;;;3.81;100.00;100200.66;4981160;28;20408;-66
2024/01/02 03:29:29;;;;;;;14.53;1.93;;;;;;;3.80;100.00;100198.84;4984021;28;20126;-66
2024/01/02 03:31:55;;;;;;;12.50;1.80;;;;;;;3.82;100.00;100194.63;4984112;28;20039;-66
2024/01/02 03:34:20;;;;;;;19.83;2.33;;;;;;;3.82;100.00;100193.72;4983728;28;20113;-64
2024/01/02 03:36:45;;;;;;;9.23;1.30;;;;;;;3.80;100.00;100184.88;4983904;28;20038;-66
2024/01/02 03:39:11;;;;;;;12.80;1.60;;;;;;;3.77;100.00;100180.41;4983853;28;20369;-64
2024/01/02 03:41:36;;;;;;;13.57;1.60;;;;;;;3.80;100.00;100175.34;4983708;28;20041;-64
2024/01/02 03:44:02;;;;;;;14.63;1.60;;;;;;;3.80;100.00;100163.97;4983953;28;20042;-65
2024/01/02 03:46:27;;;;;;;10.30;1.33;;;;;;;3.80;100.00;100172.72;4983523;28;20046;-64
2024/01/02 03:48:52;;;;;;;9.33;1.67;;;;;;;3.78;100.00;100156.09;4983785;28;20091;-63
2024/01/02 03:51:18;;;;;;;13.43;1.80;;;;;;;3.78;100.00;100160.41;5018592;28;20353;-64
2024/01/02 03:53:43;;;;;;;8.37;1.77;;;;;;;3.75;100.00;100155.88;4986971;28;20113;-64
2024/01/02 03:56:10;;;;;;;10.80;2.00;;;;;;;3.71;100.00;100153.91;5023597;28;20306;-63
2024/01/02 03:58:36;;;;;;;13.68;1.85;;;;;;;3.68;100.00;100148.53;4987624;28;20034;-64
2024/01/02 04:01:01;;;;;;;8.02;1.42;;;;;;;3.67;100.00;100145.81;4987982;28;20046;-65
2024/01/02 04:03:27;;;;;;;12.13;1.80;;;;;;;3.63;100.00;100136.00;4983684;28;20519;-65
2024/01/02 04:05:53;;;;;;;10.37;1.57;;;;;;;3.61;100.00;100135.00;4983375;28;20577;-65
2024/01/02 04:08:18;;;;;;;8.98;1.65;;;;;;;3.59;100.00;100121.88;4987313;28;20045;-65
2024/01/02 04:10:44;;;;;;;8.63;1.42;;;;;;;3.58;100.00;100117.47;4983347;28;20038;-65
2024/01/02 04:13:09;;;;;;;14.93;1.40;;;;;;;3.56;100.00;100116.47;4975879;28;20064;-64
2024/01/02 04:15:35;;;;;;;8.97;1.27;;;;;;;3.53;100.00;100105.84;4970335;28;20118;-64
2024/01/02 04:18:01;;;;;;;15.68;2.08;;;;;;;3.53;100.00;100104.94;4970721;28;20043;-65
2024/01/02 04:20:26;;;;;;;10.07;1.87;;;;;;;3.51;100.00;100107.47;4970013;28;20049;-65
2024/01/02 04:22:54;;;;;;;15.97;1.93;;;;;;;3.49;100.00;100101.28;4970237;28;20197;-64
2024/01/02 04:25:21;;;;;;;10.57;1.33;;;;;;;3.47;100.00;100093.34;4972628;28;20045;-65
2024/01/02 04:27:46;;;;;;;10.30;1.50;;;;;;;3.45;100.00;100096.69;4976393;28;20054;-64
2024/01/02 04:30:12;;;;;;;11.13;2.50;;;;;;;3.43;100.00;100098.28;4969140;28;20035;-64
2024/01/02 04:32:38;;;;;;;8.80;1.40;;;;;;;3.42;100.00;100101.72;4970226;28;20047;-65
2024/01/02 04:35:04;;;;;;;9.93;2.67;;;;;;;3.40;100.00;100093.78;4969615;28;20486;-65
2024/01/02 04:37:29;;;;;;;16.92;2.10;;;;;;;3.38;100.00;100092.81;4971010;28;20053;-65
2024/01/02 04:42:18;;;;;;;9.32;2.15;;;;;;;3.41;100.00;100089.47;5004041;28;20368;-66
2024/01/02 04:44:44;;;;;;;8.90;1.40;;;;;;;3.40;100.00;100090.28;5003840;28;20505;-66
2024/01/02 04:47:09;;;;;;;9.40;1.45;;;;;;;3.40;100.00;100090.28;5003708;28;20117;-67
2024/01/02 04:51:59;;;;;;;10.35;1.60;;;;;;;3.37;100.00;100077.94;5107826;27;20420;-64
2024/01/02 04:54:26;;;;;;;8.10;1.30;;;;;;;3.38;100.00;100076.25;5107160;28;20483;-64
2024/01/02 04:56:51;;;;;;;8.20;1.60;;;;;;;3.40;100.00;100072.03;5115759;28;20508;-64
2024/01/02 04:59:17;;;;;;;5.97;1.57;;;;;;;3.39;100.00;100055.47;5103795;28;20119;-64
2024/01/02 05:01:42;;;;;;;7.95;1.70;;;;;;;3.39;100.00;100046.72;5088148;28;20115;-64
2024/01/02 05:04:07;;;;;;;8.37;1.23;;;;;;;3.42;100.00;100042.56;5087089;28;20127;-65
2024/01/02 05:06:33;;;;;;;8.17;1.97;;;;;;;3.45;100.00;100039.25;5086805;28;20032;-65
2024/01/02 05:08:58;;;;;;;7.47;1.33;;;;;;;3.46;100.00;100038.41;5086761;28;20119;-64
2024/01/02 05:11:23;;;;;;;7.23;1.47;;;;;;;3.45;100.00;100032.28;5086713;28;20106;-65
2024/01/02 05:13:49;;;;;;;7.30;1.23;;;;;;;3.47;100.00;100027.19;5087219;28;20033;-66
2024/01/02 05:16:14;;;;;;;12.57;1.63;;;;;;;3.48;100.00;100018.53;5086754;28;20469;-64
2024/01/02 05:18:40;;;;;;;7.43;1.40;;;;;;;3.48;100.00;100018.53;5086942;28;20032;-64
2024/01/02 05:21:07;;;;;;;7.87;1.33;;;;;;;3.49;100.00;100015.13;5086737;28;20032;-64
2024/01/02 05:23:32;;;;;;;9.95;1.13;;;;;;;3.50;100.00;100014.31;5086803;28;20032;-64
2024/01/02 05:25:58;;;;;;;11.00;1.40;;;;;;;3.50;100.00;100009.09;5086355;28;20549;-65
2024/01/02 05:28:23;;;;;;;8.83;1.43;;;;;;;3.50;100.00;100002.97;5086437;28;20040;-65
2024/01/02 05:30:48;;;;;;;6.37;1.30;;;;;;;3.50;100.00;100009.09;5086332;28;20120;-65
2024/01/02 05:33:14;;;;;;;7.53;1.47;;;;;;;3.50;100.00;100001.28;5086780;28;20112;-66
2024/01/02 05:35:39;;;;;;;9.55;1.75;;;;;;;3.50;100.00;99997.75;5086289;28;20086;-65
2024/01/02 05:38:05;;;;;;;8.20;1.73;;;;;;;3.48;100.00;99995.03;5086453;28;20120;-66
2024/01/02 05:40:30;;;;;;;6.50;1.50;;;;;;;3.47;100.00;99986.31;5086139;28;20016;-66
2024/01/02 05:42:56;;;;;;;10.40;1.90;;;;;;;3.48;100.00;99998.56;5086437;28;20423;-65
2024/01/02 05:45:22;;;;;;;7.13;1.33;;;;;;;3.44;100.00;99986.16;5086195;28;20032;-66
2024/01/02 05:47:47;;;;;;;8.50;1.53;;;;;;;3.44;100.00;99987.84;5086291;28;20112;-66
2024/01/02 05:50:13;;;;;;;12.50;1.50;;;;;;;3.45;100.00;99982.69;5085912;28;20333;-66
2024/01/02 05:52:41;;;;;;;7.57;1.50;;;;;;;3.48;100.00;99976.78;5086377;28;20050;-66
2024/01/02 05:55:06;;;;;;;9.95;1.73;;;;;;;3.48;100.00;99976.78;5085926;28;20182;-66
2024/01/02 05:57:32;;;;;;;8.37;1.30;;;;;;;3.44;100.00;99962.66;5085933;28;20127;-65
2024/01/02 05:59:57;;;;;;;6.13;1.30;;;;;;;3.47;100.00;99961.91;5086966;28;20052;-65
2024/01/02 06:02:22;;;;;;;8.93;1.50;;;;;;;3.47;100.00;99956.69;5080421;28;20286;-66
2024/01/02 06:04:48;;;;;;;9.07;1.37;;;;;;;3.49;100.00;99955.09;5073518;28;20392;-66
2024/01/02 06:07:13;;;;;;;8.20;1.63;;;;;;;3.49;100.00;99936.81;5074161;28;20120;-65
2024/01/02 06:09:39;;;;;;;6.43;1.43;;;;;;;3.51;100.00;99948.22;5071287;28;20385;-66
2024/01/02 06:12:05;;;;;;;9.80;1.60;;;;;;;3.50;100.00;99938.63;5073836;28;20524;-66
2024/01/02 06:14:30;;;;;;;7.73;1.80;;;;;;;3.51;100.00;99934.25;5072288;28;20029;-67
2024/01/02 06:16:57;;;;;;;13.75;1.67;;;;;;;3.48;100.00;99933.28;5073154;28;20044;-66
2024/01/02 06:19:22;;;;;;;9.00;1.33;;;;;;;3.47;100.00;99927.97;5068627;28;20177;-66
2024/01/02 06:21:47;;;;;;;7.53;1.42;;;;;;;3.46;100.00;99926.19;5056368;28;20486;-66
2024/01/02 06:24:13;;;;;;;5.07;1.17;;;;;;;3.48;100.00;99919.34;5069471;28;20037;-66
2024/01/02 06:26:40;;;;;;;5.17;1.40;;;;;;;3.51;100.00;99910.78;5072081;28;20404;-66
2024/01/02 06:29:06;;;;;;;11.60;1.70;;;;;;;3.53;100.00;99914.38;5072119;28;20032;-66
2024/01/02 06:31:31;;;;;;;6.07;1.40;;;;;;;3.53;100.00;99907.44;5072386;28;20502;-66
2024/01/02 06:33:56;;;;;;;7.10;1.97;;;;;;;3.53;100.00;99907.44;5072188;28;20036;-66
2024/01/02 06:36:22;;;;;;;6.73;1.60;;;;;;;3.52;100.00;99905.63;5071673;28;20290;-66
2024/01/02 06:38:47;;;;;;;8.23;1.33;;;;;;;3.53;100.00;99907.44;5073463;28;20091;-66
2024/01/02 06:41:13;;;;;;;13.90;1.43;;;;;;;3.54;100.00;99903.13;5070932;28;20033;-65
2024/01/02 06:43:39;;;;;;;12.00;1.40;;;;;;;3.56;100.00;99905.00;5071791;28;20289;-66
2024/01/02 06:46:04;;;;;;;8.33;1.50;;;;;;;3.58;100.00;99899.88;5071681;28;20036;-66
2024/01/02 06:48:29;;;;;;;7.93;1.80;;;;;;;3.58;100.00;99890.31;5071746;28;20044;-65
2024/01/02 06:50:55;;;;;;;7.83;1.37;;;;;;;3.61;100.00;99900.03;5071350;28;20420;-65
2024/01/02 06:53:20;;;;;;;10.33;1.47;;;;;;;3.61;100.00;99890.47;5071596;28;20036;-65
2024/01/02 06:55:46;;;;;;;7.50;1.20;;;;;;;3.64;100.00;99901.09;5071042;28;20032;-65
2024/01/02 06:58:11;;;;;;;8.17;1.50;;;;;;;3.69;100.00;99904.88;5071641;28;20451;-65
2024/01/02 07:00:37;;;;;;;9.43;1.80;;;;;;;3.72;100.00;99896.28;5072227;28;20342;-65
2024/01/02 07:03:02;;;;;;;8.57;1.17;;;;;;;3.74;100.00;99889.44;5071495;28;20054;-65
2024/01/02 07:05:28;;;;;;;9.33;1.40;;;;;;;3.77;100.00;99881.75;5071066;28;20039;-65
2024/01/02 07:07:53;;;;;;;12.30;1.40;;;;;;;3.81;100.00;99887.22;5071250;28;20047;-65
2024/01/02 07:10:18;;;;;;;11.43;1.60;;;;;;;3.83;100.00;99883.00;5070783;28;20316;-65
2024/01/02 07:12:44;;;;;;;11.77;1.27;;;;;;;3.86;100.00;99875.31;5071389;28;20039;-65
2024/01/02 07:15:09;;;;;;;6.77;1.10;;;;;;;3.88;100.00;99871.09;5070137;28;20035;-65
2024/01/02 07:17:35;;;;;;;7.60;1.40;;;;;;;3.92;100.00;99867.81;5074899;28;20442;-67
2024/01/02 07:20:00;;;;;;;5.70;1.37;;;;;;;3.97;100.00;99867.16;5071703;28;20029;-65
2024/01/02 07:22:28;;;;;;;6.37;1.53;;;;;;;4.00;100.00;99865.59;5070254;28;20028;-66
2024/01/02 07:24:54;;;;;;;8.75;1.33;;;;;;;4.05;100.00;99863.22;5070864;28;20033;-66
2024/01/02 07:27:19;;;;;;;8.13;1.10;;;;;;;4.08;100.00;99851.22;5070669;28;20040;-66
2024/01/02 07:29:46;;;;;;;7.33;0.97;;;;;;;4.13;100.00;99846.25;5065814;28;20291;-67
2024/01/02 07:32:11;;;;;;;8.98;1.25;;;;;;;4.17;100.00;99837.72;5055586;28;20409;-66
2024/01/02 07:34:36;;;;;;;5.70;1.10;;;;;;;4.15;100.00;99829.81;5069992;28;20112;-66
2024/01/02 07:37:02;;;;;;;6.03;1.63;;;;;;;4.22;100.00;99831.03;5070186;28;20123;-67
2024/01/02 07:39:27;;;;;;;6.77;1.60;;;;;;;4.26;100.00;99836.50;5069853;28;20048;-67
2024/01/02 07:41:53;;;;;;;9.90;1.70;;;;;;;4.29;100.00;99826.19;5070285;28;20549;-66
2024/01/02 07:44:18;;;;;;;12.20;2.00;;;;;;;4.32;100.00;99820.22;5070151;28;20127;-67
2024/01/02 07:46:44;;;;;;;9.03;1.73;;;;;;;4.37;100.00;99816.13;5069850;28;20739;-67
2024/01/02 07:49:10;;;;;;;11.10;1.97;;;;;;;4.39;100.00;99811.84;5070008;28;20166;-66
2024/01/02 07:51:35;;;;;;;7.32;1.40;;;;;;;4.41;100.00;99802.38;5069959;28;20115;-67
2024/01/02 07:54:01;;;;;;;9.93;2.20;;;;;;;4.45;100.00;99804.31;5069971;28;20734;-67
2024/01/02 07:56:26;;;;;;;6.70;1.33;;;;;;;4.48;100.00;99798.38;5069550;28;20036;-66
2024/01/02 07:58:52;;;;;;;8.73;1.63;;;;;;;4.51;100.00;99795.91;5070104;28;20408;-67
2024/01/02 08:01:17;;;;;;;8.03;1.40;;;;;;;4.52;100.00;99788.13;5071418;28;20103;-66
2024/01/02 08:03:44;;;;;;;7.18;1.67;;;;;;;4.56;100.00;99779.63;5070323;28;20032;-66
2024/01/02 08:06:09;;;;;;;12.03;1.80;;;;;;;4.58;100.00;99775.38;5069914;28;20040;-66
2024/01/02 08:08:34;;;;;;;6.38;1.45;;;;;;;4.62;100.00;99774.69;5069929;28;20112;-68
2024/01/02 08:11:00;;;;;;;11.40;1.80;;;;;;;4.67;100.00;99773.19;5070057;28;20040;-66
2024/01/02 08:13:25;;;;;;;8.37;1.67;;;;;;;4.71;100.00;99769.91;5070068;28;20112;-67
2024/01/02 08:15:51;;;;;;;10.53;1.60;;;;;;;4.73;100.00;99770.88;5068850;28;20040;-67
2024/01/02 08:18:16;;;;;;;9.15;1.38;;;;;;;4.75;100.00;99763.09;5069562;28;20415;-67
2024/01/02 08:20:41;;;;;;;12.03;1.73;;;;;;;4.75;100.00;99766.59;5069199;28;20054;-67
2024/01/02 08:23:07;;;;;;;12.93;1.27;;;;;;;4.78;100.00;99756.28;5069292;28;20123;-67
2024/01/02 08:25:33;;;;;;;10.20;1.53;;;;;;;4.84;100.00;99753.06;5068584;28;20040;-67
2024/01/02 08:27:58;;;;;;;6.60;1.27;;;;;;;4.85;100.00;99751.34;5070031;28;20194;-68
2024/01/02 08:30:24;;;;;;;7.28;1.58;;;;;;;4.87;100.00;99753.22;5069486;28;20047;-68
2024/01/02 08:32:49;;;;;;;7.23;1.33;;;;;;;4.90;100.00;99748.13;5069861;28;20089;-67
2024/01/02 08:35:16;;;;;;;8.25;1.58;;;;;;;4.89;100.00;99740.19;5069399;28;20476;-67
2024/01/02 08:37:41;;;;;;;8.10;1.40;;;;;;;4.91;100.00;99743.78;5069475;28;20047;-67
2024/01/02 08:40:08;;;;;;;6.57;1.43;;;;;;;4.96;100.00;99742.28;5069743;28;20507;-67
2024/01/02 08:42:33;;;;;;;9.90;1.60;;;;;;;4.96;100.00;99731.81;5068696;28;20047;-66
2024/01/02 08:44:58;;;;;;;7.63;1.40;;;;;;;4.94;100.00;99736.06;5068038;28;20045;-67
2024/01/02 08:47:24;;;;;;;7.97;1.60;;;;;;;4.97;100.00;99725.78;5069458;28;20477;-67
2024/01/02 08:49:49;;;;;;;4.53;1.40;;;;;;;4.96;100.00;99721.34;5069286;28;20295;-67
2024/01/02 08:52:14;;;;;;;6.10;1.40;;;;;;;4.96;100.00;99719.63;5069647;28;20044;-67
2024/01/02 08:54:40;;;;;;;8.87;1.23;;;;;;;5.00;100.00;99718.06;5068301;28;20036;-67
2024/01/02 08:57:05;;;;;;;9.30;1.33;;;;;;;5.02;100.00;99705.94;5068725;28;20163;-68
2024/01/02 08:59:31;;;;;;;5.45;1.00;;;;;;;5.05;100.00;99706.06;5069514;28;20033;-67
2024/01/02 09:01:57;;;;;;;6.13;0.97;;;;;;;5.02;100.00;99708.56;5070404;28;20111;-68
2024/01/02 09:04:23;;;;;;;7.93;1.45;;;;;;;5.01;100.00;99709.38;5067666;28;20076;-68
2024/01/02 09:06:48;;;;;;;11.30;1.47;;;;;;;5.00;100.00;99697.13;5069642;28;20094;-67
2024/01/02 09:09:17;;;;;;;7.38;1.20;;;;;;;5.01;100.00;99702.44;5069977;28;20108;-66
2024/01/02 09:11:43;;;;;;;5.63;1.30;;;;;;;5.00;100.00;99700.63;5069372;28;20028;-66
2024/01/02 09:14:09;;;;;;;6.82;1.20;;;;;;;4.99;100.00;99697.94;5069055;28;20032;-66
2024/01/02 09:16:36;;;;;;;8.13;1.20;;;;;;;5.01;100.00;99697.19;5070719;28;20031;-66
2024/01/02 09:19:02;;;;;;;7.18;1.33;;;;;;;5.02;100.00;99693.75;5071008;28;20040;-68
2024/01/02 09:21:28;;;;;;;6.17;1.30;;;;;;;5.03;100.00;99681.56;5070795;28;20078;-67
2024/01/02 09:23:54;;;;;;;6.07;0.95;;;;;;;5.07;100.00;99678.28;5068962;28;20029;-67
2024/01/02 09:26:25;;;;;;;5.40;1.15;;;;;;;5.09;100.00;99676.59;5070164;28;20036;-68
2024/01/02 09:28:50;;;;;;;10.00;1.30;;;;;;;5.07;100.00;99670.41;5082229;28;20044;-69
2024/01/02 09:31:16;;;;;;;4.00;0.80;;;;;;;5.05;100.00;99672.06;5074672;28;20058;-69
2024/01/02 09:33:43;;;;;;;5.67;1.03;;;;;;;5.06;100.00;99672.13;5068248;28;20040;-70
2024/01/02 09:36:08;;;;;;;7.68;1.63;;;;;;;5.07;100.00;99671.31;5065258;28;20024;-70
2024/01/02 09:38:38;;;;;;;7.80;1.08;;;;;;;5.06;100.00;99666.00;5081369;28;20432;-69
2024/01/02 09:41:30;;;;;;;5.00;1.00;;;;;;;5.10;100.00;99647.88;5082680;28;20025;-68
2024/01/02 09:44:15;;;;;;;6.20;1.00;;;;;;;5.13;100.00;99641.91;5077551;28;20041;-68
2024/01/02 09:47:06;;;;;;;7.43;1.27;;;;;;;5.14;100.00;99636.72;5068904;28;20040;-68
2024/01/02 09:49:48;;;;;;;6.32;0.98;;;;;;;5.19;100.00;99631.69;5081319;28;20040;-68
2024/01/02 09:52:21;;;;;;;7.78;1.35;;;;;;;5.23;100.00;99628.38;5079986;28;20035;-68
2024/01/02 09:55:20;;;;;;;7.90;1.35;;;;;;;5.26;100.00;99615.44;5075747;28;20035;-68
2024/01/02 09:58:00;;;;;;;5.70;1.03;;;;;;;5.26;100.00;99607.59;5058926;28;20051;-65
2024/01/02 10:00:45;;;;;;;6.72;1.30;;;;;;;5.29;100.00;99602.47;5081348;28;20024;-66
2024/01/02 10:03:29;;;;;;;6.55;1.40;;;;;;;5.30;100.00;99598.13;5073869;28;20036;-67
2024/01/02 10:06:08;;;;;;;6.90;1.23;;;;;;;5.32;100.00;99592.16;5071743;28;20039;-66
2024/01/02 10:08:59;;;;;;;8.18;1.40;;;;;;;5.40;100.00;99582.00;5065225;28;20115;-67
2024/01/02 10:11:36;;;;;;;7.77;1.37;;;;;;;5.45;100.00;99588.31;5072268;28;20125;-66
2024/01/02 10:14:09;;;;;;;6.22;1.13;;;;;;;5.50;100.00;99578.94;5073267;28;20134;-65
2024/01/02 10:17:02;;;;;;;6.05;1.13;;;;;;;5.54;100.00;99584.38;5063705;28;20037;-68
2024/01/02 10:19:55;;;;;;;9.32;1.60;;;;;;;5.55;100.00;99585.25;5056653;28;20401;-67
2024/01/02 10:22:26;;;;;;;7.95;1.35;;;;;;;5.58;100.00;99586.28;5073344;28;20095;-67
2024/01/02 10:25:02;;;;;;;6.87;1.50;;;;;;;5.59;100.00;99574.09;5074629;28;20451;-68
2024/01/02 10:27:58;;;;;;;3.60;0.88;;;;;;;5.65;100.00;99569.09;5070604;28;20033;-68
2024/01/02 10:30:33;;;;;;;5.88;1.45;;;;;;;5.70;100.00;99553.56;5071580;28;20067;-66
2024/01/02 10:33:20;;;;;;;6.53;0.90;;;;;;;5.71;100.00;99547.50;5072026;28;20385;-67
2024/01/02 10:35:52;;;;;;;7.43;1.35;;;;;;;5.75;100.00;99536.31;5064725;28;20377;-65
2024/01/02 10:38:24;;;;;;;6.27;1.27;;;;;;;5.77;100.00;99527.72;5071714;28;20067;-67
2024/01/02 10:41:29;;;;;;;8.32;1.08;;;;;;;5.81;100.00;99513.00;5071447;28;20128;-67
2024/01/02 10:44:11;;;;;;;4.80;1.10;;;;;;;5.81;100.00;99497.28;5066316;28;20035;-67
2024/01/02 10:46:51;;;;;;;6.38;1.10;;;;;;;5.80;100.00;99499.00;5063390;28;20052;-64
2024/01/02 10:49:27;;;;;;;5.63;1.20;;;;;;;5.79;100.00;99501.56;5071448;28;20064;-68
2024/01/02 10:52:01;;;;;;;5.97;1.10;;;;;;;5.78;100.00;99494.50;5071140;28;20511;-67
2024/01/02 10:54:57;;;;;;;4.63;1.15;;;;;;;5.84;100.00;99492.16;5071254;28;20037;-68
2024/01/02 10:57:52;;;;;;;3.60;1.00;;;;;;;5.81;100.00;99490.31;5055358;28;20044;-68
2024/01/02 11:00:22;;;;;;;4.00;1.02;;;;;;;5.79;100.00;99477.97;5071943;28;20033;-68
2024/01/02 11:02:48;;;;;;;7.93;1.55;;;;;;;5.82;100.00;99470.25;5071560;28;20033;-68
2024/01/02 11:05:37;;;;;;;4.27;1.20;;;;;;;5.82;100.00;99459.78;5070912;28;20113;-65
2024/01/02 11:08:16;;;;;;;3.75;1.00;;;;;;;5.83;100.00;99451.06;5071059;28;20047;-68
2024/01/02 11:10:52;;;;;;;4.45;1.38;;;;;;;5.88;100.00;99433.81;5070970;28;20090;-69
2024/01/02 11:13:19;;;;;;;5.07;1.00;;;;;;;5.92;100.00;99427.91;5071032;28;20404;-67
2024/01/02 11:15:49;;;;;;;9.20;1.50;;;;;;;5.89;100.00;99419.91;5070363;28;20439;-67
2024/01/02 11:18:17;;;;;;;6.87;1.30;;;;;;;5.91;100.00;99413.88;5071518;28;20786;-66
2024/01/02 11:20:53;;;;;;;4.88;1.15;;;;;;;5.90;100.00;99411.22;5070840;28;20028;-67
2024/01/02 11:23:21;;;;;;;7.43;1.60;;;;;;;5.89;100.00;99407.69;5071096;28;20033;-67
2024/01/02 11:26:02;;;;;;;5.40;1.55;;;;;;;5.89;100.00;99410.31;5070349;28;20039;-67
2024/01/02 11:28:28;;;;;;;6.30;1.60;;;;;;;5.89;100.00;99396.31;5069436;28;20040;-68
2024/01/02 11:30:56;;;;;;;6.33;1.40;;;;;;;5.89;100.00;99394.59;5070299;28;20488;-67
2024/01/02 11:33:35;;;;;;;5.40;1.45;;;;;;;5.94;100.00;99400.00;5070414;28;20028;-68
2024/01/02 11:36:27;;;;;;;5.30;1.17;;;;;;;5.95;100.00;99388.69;5070418;28;20040;-67
2024/01/02 11:39:01;;;;;;;5.15;1.02;;;;;;;5.99;100.00;99393.19;5068502;28;20043;-61